地図

経路データ

SID SEASON NUMBER BASIN SUBBASIN NAME ISO_TIME NATURE LAT LON WMO_WIND WMO_PRES WMO_AGENCY TRACK_TYPE DIST2LAND LANDFALL IFLAG USA_AGENCY USA_ATCF_ID USA_LAT USA_LON USA_RECORD USA_STATUS USA_WIND USA_PRES USA_SSHS USA_R34_NE USA_R34_SE USA_R34_SW USA_R34_NW USA_R50_NE USA_R50_SE USA_R50_SW USA_R50_NW USA_R64_NE USA_R64_SE USA_R64_SW USA_R64_NW USA_POCI USA_ROCI USA_RMW USA_EYE TOKYO_LAT TOKYO_LON TOKYO_GRADE TOKYO_WIND TOKYO_PRES TOKYO_R50_DIR TOKYO_R50_LONG TOKYO_R50_SHORT TOKYO_R30_DIR TOKYO_R30_LONG TOKYO_R30_SHORT TOKYO_LAND CMA_LAT CMA_LON CMA_CAT CMA_WIND CMA_PRES HKO_LAT HKO_LON HKO_CAT HKO_WIND HKO_PRES NEWDELHI_LAT NEWDELHI_LON NEWDELHI_GRADE NEWDELHI_WIND NEWDELHI_PRES NEWDELHI_CI NEWDELHI_DP NEWDELHI_POCI REUNION_LAT REUNION_LON REUNION_TYPE REUNION_WIND REUNION_PRES REUNION_TNUM REUNION_CI REUNION_RMW REUNION_R34_NE REUNION_R34_SE REUNION_R34_SW REUNION_R34_NW REUNION_R50_NE REUNION_R50_SE REUNION_R50_SW REUNION_R50_NW REUNION_R64_NE REUNION_R64_SE REUNION_R64_SW REUNION_R64_NW BOM_LAT BOM_LON BOM_TYPE BOM_WIND BOM_PRES BOM_TNUM BOM_CI BOM_RMW BOM_R34_NE BOM_R34_SE BOM_R34_SW BOM_R34_NW BOM_R50_NE BOM_R50_SE BOM_R50_SW BOM_R50_NW BOM_R64_NE BOM_R64_SE BOM_R64_SW BOM_R64_NW BOM_ROCI BOM_POCI BOM_EYE BOM_POS_METHOD BOM_PRES_METHOD NADI_LAT NADI_LON NADI_CAT NADI_WIND NADI_PRES WELLINGTON_LAT WELLINGTON_LON WELLINGTON_WIND WELLINGTON_PRES DS824_LAT DS824_LON DS824_STAGE DS824_WIND DS824_PRES TD9636_LAT TD9636_LON TD9636_STAGE TD9636_WIND TD9636_PRES TD9635_LAT TD9635_LON TD9635_WIND TD9635_PRES TD9635_ROCI NEUMANN_LAT NEUMANN_LON NEUMANN_CLASS NEUMANN_WIND NEUMANN_PRES MLC_LAT MLC_LON MLC_CLASS MLC_WIND MLC_PRES USA_GUST BOM_GUST BOM_GUST_PER REUNION_GUST REUNION_GUST_PER USA_SEAHGT USA_SEARAD_NE USA_SEARAD_SE USA_SEARAD_SW USA_SEARAD_NW STORM_SPEED STORM_DIR
1908067N24300 1908 12 NA NA NOT_NAMED 1908-03-06 12:00:00 TS 23.8000 -60.2000 50 hurdat_atl main 823 769 O_____________ hurdat_atl AL011908 23.8000 -60.2000 TS 50 0 12 203
1908067N24300 1908 12 NA NA NOT_NAMED 1908-03-06 15:00:00 TS 23.2526 -60.4605 main 762 700 P_____________ AL011908 23.2526 -60.4605 TS 52 0 12 203
1908067N24300 1908 12 NA NA NOT_NAMED 1908-03-06 18:00:00 TS 22.7000 -60.7000 55 hurdat_atl main 700 648 O_____________ hurdat_atl AL011908 22.7000 -60.7000 TS 55 0 12 200
1908067N24300 1908 12 NA NA NOT_NAMED 1908-03-06 21:00:00 TS 22.1424 -60.9073 main 641 590 P_____________ AL011908 22.1424 -60.9073 TS 60 0 12 199
1908067N24300 1908 12 NA NA NOT_NAMED 1908-03-07 00:00:00 TS 21.6000 -61.1000 65 hurdat_atl main 590 541 O_____________ hurdat_atl AL011908 21.6000 -61.1000 HU 65 1 11 199
1908067N24300 1908 12 NA NA NOT_NAMED 1908-03-07 03:00:00 TS 21.0850 -61.2999 main 541 495 P_____________ AL011908 21.0850 -61.2999 HU 67 1 11 200
1908067N24300 1908 12 NA NA NOT_NAMED 1908-03-07 06:00:00 TS 20.6000 -61.5000 70 hurdat_atl main 495 456 O_____________ hurdat_atl AL011908 20.6000 -61.5000 HU 70 1 10 202
1908067N24300 1908 12 NA NA NOT_NAMED 1908-03-07 09:00:00 TS 20.1425 -61.7074 main 451 415 P_____________ AL011908 20.1425 -61.7074 HU 75 1 10 203
1908067N24300 1908 12 NA NA NOT_NAMED 1908-03-07 12:00:00 TS 19.7000 -61.9000 80 hurdat_atl main 415 391 O_____________ hurdat_atl AL011908 19.7000 -61.9000 HU 80 1 10 200
1908067N24300 1908 12 NA NA NOT_NAMED 1908-03-07 15:00:00 TS 19.2425 -62.0574 main 379 361 P_____________ AL011908 19.2425 -62.0574 HU 82 1 9 197
1908067N24300 1908 12 NA NA NOT_NAMED 1908-03-07 18:00:00 TS 18.8000 -62.2000 85 hurdat_atl main 361 348 O_____________ hurdat_atl AL011908 18.8000 -62.2000 HU 85 2 9 198
1908067N24300 1908 12 NA CS NOT_NAMED 1908-03-07 21:00:00 TS 18.3850 -62.3499 main 348 327 P_____________ AL011908 18.3850 -62.3499 HU 85 2 9 200
1908067N24300 1908 12 NA CS NOT_NAMED 1908-03-08 00:00:00 TS 18.0000 -62.5000 85 hurdat_atl main 328 318 O_____________ hurdat_atl AL011908 18.0000 -62.5000 HU 85 2 8 201
1908067N24300 1908 12 NA CS NOT_NAMED 1908-03-08 03:00:00 TS 17.6425 -62.6499 main 324 309 P_____________ AL011908 17.6425 -62.6499 HU 77 1 8 202
1908067N24300 1908 12 NA CS NOT_NAMED 1908-03-08 06:00:00 TS 17.3000 -62.8000 70 hurdat_atl main 313 307 O_____________ hurdat_atl AL011908 17.3000 -62.8000 HU 70 1 8 202
1908067N24300 1908 12 NA CS NOT_NAMED 1908-03-08 09:00:00 TS 16.9425 -62.9500 main 321 311 P_____________ AL011908 16.9425 -62.9500 HU 67 1 8 202
1908067N24300 1908 12 NA CS NOT_NAMED 1908-03-08 12:00:00 TS 16.6000 -63.1000 65 hurdat_atl main 320 317 O_____________ hurdat_atl AL011908 16.6000 -63.1000 HU 65 1 7 204
1908067N24300 1908 12 NA CS NOT_NAMED 1908-03-08 15:00:00 TS 16.2925 -63.2499 main 331 323 P_____________ AL011908 16.2925 -63.2499 HU 65 1 7 206
1908067N24300 1908 12 NA CS NOT_NAMED 1908-03-08 18:00:00 TS 16.0000 -63.4000 65 hurdat_atl main 339 339 O_____________ hurdat_atl AL011908 16.0000 -63.4000 HU 65 1 7 206
1908067N24300 1908 12 NA CS NOT_NAMED 1908-03-08 21:00:00 TS 15.6925 -63.5500 main 355 347 P_____________ AL011908 15.6925 -63.5500 HU 65 1 7 206
1908067N24300 1908 12 NA CS NOT_NAMED 1908-03-09 00:00:00 TS 15.4000 -63.7000 65 hurdat_atl main 367 367 O_____________ hurdat_atl AL011908 15.4000 -63.7000 HU 65 1 6 208
1908067N24300 1908 12 NA CS NOT_NAMED 1908-03-09 03:00:00 TS 15.1425 -63.8575 main 382 382 P_____________ AL011908 15.1425 -63.8575 HU 57 0 6 210
1908067N24300 1908 12 NA CS NOT_NAMED 1908-03-09 06:00:00 TS 14.9000 -64.0000 50 hurdat_atl main 396 396 O_____________ hurdat_atl AL011908 14.9000 -64.0000 TS 50 0 5 205
1908067N24300 1908 12 NA CS NOT_NAMED 1908-03-09 09:00:00 TS 14.6575 -64.0924 main 411 411 P_____________ AL011908 14.6575 -64.0924 TS 45 0 5 201
1908067N24300 1908 12 NA CS NOT_NAMED 1908-03-09 12:00:00 TS 14.4000 -64.2000 40 hurdat_atl main 425 392 O_____________ hurdat_atl AL011908 14.4000 -64.2000 TS 40 0 6 207
1908067N24300 1908 12 NA CS NOT_NAMED 1908-03-09 15:00:00 TS 14.1101 -64.3777 main 392 360 P_____________ AL011908 14.1101 -64.3777 TS 37 0 7 213
1908067N24300 1908 12 NA CS NOT_NAMED 1908-03-09 18:00:00 TS 13.8000 -64.6000 35 hurdat_atl main 360 O_____________ hurdat_atl AL011908 13.8000 -64.6000 TS 35 0 8 215

IBTrACS Databaseについて

本データベースは、米国NOAAが公開する1842年以降の世界の熱帯低気圧のベストトラックデータアーカイブInternational Best Track Archive for Climate Stewardship (IBTrACS)を、ウェブで閲覧しやすい形式に変換したものです。

最終更新日:2021-10-08